createdAt,value
2023-02-12T00:01:48.874Z,66.47
2023-02-12T00:04:21.883Z,65.85
2023-02-12T00:06:54.769Z,65.59
2023-02-12T00:09:29.240Z,66.01
2023-02-12T00:12:02.866Z,66.88
2023-02-12T00:14:37.931Z,65.83
2023-02-12T00:17:11.115Z,65.81
2023-02-12T00:19:44.199Z,66.18
2023-02-12T00:22:17.169Z,65.95
2023-02-12T00:24:51.593Z,65.83
2023-02-12T00:27:25.093Z,65.66
2023-02-12T00:29:59.942Z,65.37
2023-02-12T00:32:33.046Z,65.49
2023-02-12T00:35:06.542Z,65.65
2023-02-12T00:37:39.838Z,65.88
2023-02-12T00:40:14.631Z,65.79
2023-02-12T00:42:47.646Z,65.70
2023-02-12T00:45:20.827Z,65.95
2023-02-12T00:47:53.876Z,65.65
2023-02-12T00:50:27.984Z,65.66
2023-02-12T00:53:02.948Z,65.46
2023-02-12T00:55:37.318Z,65.38
2023-02-12T00:58:10.556Z,65.30
2023-02-12T01:00:43.816Z,65.59
2023-02-12T01:03:17.420Z,65.32
2023-02-12T01:05:50.414Z,65.64
2023-02-12T01:08:23.858Z,65.41
2023-02-12T01:10:59.596Z,65.09
2023-02-12T01:13:34.266Z,65.43
2023-02-12T01:16:09.572Z,65.03
2023-02-12T01:18:42.620Z,64.30
2023-02-12T01:21:18.043Z,64.58
2023-02-12T01:23:51.407Z,64.76
2023-02-12T01:26:26.516Z,65.06
2023-02-12T01:29:01.446Z,64.75
2023-02-12T01:31:37.513Z,64.59
2023-02-12T01:34:11.540Z,65.47
2023-02-12T01:36:44.582Z,64.94
2023-02-12T01:39:17.510Z,64.90
2023-02-12T01:41:51.964Z,64.79
2023-02-12T01:44:26.661Z,65.21
2023-02-12T01:47:01.136Z,65.05
2023-02-12T01:49:37.567Z,65.04
2023-02-12T01:52:13.567Z,65.17
2023-02-12T01:54:48.057Z,65.59
2023-02-12T01:57:23.102Z,65.98
2023-02-12T01:59:57.534Z,65.73
2023-02-12T02:02:32.644Z,65.68
2023-02-12T02:05:06.897Z,66.11
2023-02-12T02:07:40.391Z,66.19
2023-02-12T02:10:13.364Z,66.45
2023-02-12T02:13:07.439Z,66.32
2023-02-12T02:15:41.966Z,65.83
2023-02-12T02:18:19.336Z,65.68
2023-02-12T02:21:11.437Z,65.80
2023-02-12T02:23:56.360Z,65.96
2023-02-12T02:26:35.001Z,66.13
2023-02-12T02:29:21.542Z,66.11
2023-02-12T02:32:00.235Z,66.52
2023-02-12T02:34:38.317Z,67.01
2023-02-12T02:37:15.385Z,67.04
2023-02-12T02:39:50.046Z,67.32
2023-02-12T02:42:26.240Z,67.37
2023-02-12T02:45:01.780Z,67.93
2023-02-12T02:47:39.855Z,68.35
2023-02-12T02:50:15.356Z,68.78
2023-02-12T02:52:50.902Z,68.90
2023-02-12T02:55:26.793Z,68.92
2023-02-12T02:58:02.206Z,68.76
2023-02-12T03:00:37.313Z,69.56
2023-02-12T03:03:17.035Z,69.49
2023-02-12T03:05:51.152Z,69.25
2023-02-12T03:08:27.063Z,69.37
2023-02-12T03:11:02.772Z,69.70
2023-02-12T03:13:39.375Z,70.08
2023-02-12T03:16:16.081Z,69.92
2023-02-12T03:18:55.104Z,69.75
2023-02-12T03:21:29.932Z,70.09
2023-02-12T03:24:06.563Z,70.13
2023-02-12T03:26:42.285Z,70.38
2023-02-12T03:29:15.582Z,70.17
2023-02-12T03:32:02.126Z,70.62
2023-02-12T03:34:47.448Z,70.43
2023-02-12T03:37:23.440Z,70.30
2023-02-12T03:39:58.929Z,70.73
2023-02-12T03:42:36.589Z,70.46
2023-02-12T03:45:11.332Z,71.22
2023-02-12T03:47:47.356Z,71.19
2023-02-12T03:50:27.360Z,70.92
2023-02-12T03:53:00.825Z,70.44
2023-02-12T03:55:34.465Z,70.19
2023-02-12T03:58:09.831Z,70.01
2023-02-12T04:00:44.274Z,70.38
2023-02-12T04:03:17.691Z,71.03
2023-02-12T04:05:52.019Z,70.76
2023-02-12T04:08:26.351Z,70.56
2023-02-12T04:11:04.372Z,70.35
2023-02-12T04:13:43.323Z,70.31
2023-02-12T04:16:21.128Z,70.48
2023-02-12T04:18:54.837Z,70.72
2023-02-12T04:21:38.973Z,71.16
2023-02-12T04:24:18.077Z,70.92
2023-02-12T04:26:55.768Z,71.12
2023-02-12T04:29:33.365Z,70.41
2023-02-12T04:32:09.286Z,70.44
2023-02-12T04:34:46.663Z,70.28
2023-02-12T04:37:24.086Z,70.19
2023-02-12T04:39:57.792Z,70.74
2023-02-12T04:42:30.861Z,70.39
2023-02-12T04:45:04.028Z,69.92
2023-02-12T04:47:37.156Z,69.85
2023-02-12T04:50:11.502Z,69.76
2023-02-12T04:52:45.905Z,69.68
2023-02-12T04:55:19.380Z,69.50
2023-02-12T04:57:52.418Z,69.64
2023-02-12T05:00:25.827Z,69.32
2023-02-12T05:02:58.644Z,69.39
2023-02-12T05:05:32.263Z,69.40
2023-02-12T05:08:06.873Z,70.09
2023-02-12T05:10:40.171Z,70.19
2023-02-12T05:13:13.534Z,69.72
2023-02-12T05:15:47.257Z,69.80
2023-02-12T05:18:20.172Z,69.91
2023-02-12T05:20:56.536Z,70.25
2023-02-12T05:23:32.473Z,70.54
2023-02-12T05:26:06.539Z,71.06
2023-02-12T05:28:39.552Z,70.54
2023-02-12T05:31:14.673Z,70.74
2023-02-12T05:33:48.767Z,70.73
2023-02-12T05:36:23.533Z,70.37
2023-02-12T05:39:00.210Z,70.64
2023-02-12T05:41:35.378Z,70.74
2023-02-12T05:44:11.436Z,70.53
2023-02-12T05:46:45.109Z,70.50
2023-02-12T05:49:18.516Z,70.63
2023-02-12T05:51:51.695Z,70.81
2023-02-12T05:54:26.207Z,70.85
2023-02-12T05:56:59.190Z,70.62
2023-02-12T05:59:32.156Z,70.80
2023-02-12T06:02:05.078Z,70.10
2023-02-12T06:04:38.315Z,70.55
2023-02-12T06:07:11.424Z,70.53
2023-02-12T06:09:46.120Z,70.27
2023-02-12T06:12:19.868Z,70.31
2023-02-12T06:14:53.030Z,70.31
2023-02-12T06:17:26.632Z,70.10
2023-02-12T06:19:59.822Z,70.23
2023-02-12T06:22:32.890Z,69.79
2023-02-12T06:25:07.912Z,69.61
2023-02-12T06:27:41.196Z,69.45
2023-02-12T06:30:14.977Z,70.18
2023-02-12T06:32:50.342Z,69.87
2023-02-12T06:35:25.423Z,70.34
2023-02-12T06:37:58.439Z,70.41
2023-02-12T06:40:33.388Z,70.65
2023-02-12T06:43:06.549Z,70.22
2023-02-12T06:45:39.721Z,70.31
2023-02-12T06:48:12.665Z,70.25
2023-02-12T06:50:45.698Z,70.08
2023-02-12T06:53:18.524Z,70.39
2023-02-12T06:55:52.967Z,69.63
2023-02-12T06:58:26.274Z,69.96
2023-02-12T07:01:08.991Z,69.79
2023-02-12T07:03:42.370Z,70.25
2023-02-12T07:06:15.648Z,69.82
2023-02-12T07:08:49.092Z,70.32
2023-02-12T07:11:25.625Z,69.59
2023-02-12T07:14:00.154Z,69.48
2023-02-12T07:16:33.283Z,69.15
2023-02-12T07:19:07.057Z,68.88
2023-02-12T07:21:40.030Z,69.08
2023-02-12T07:24:13.945Z,68.83
2023-02-12T07:26:48.598Z,68.83
2023-02-12T07:29:21.892Z,69.01
2023-02-12T07:31:55.330Z,68.04
2023-02-12T07:34:28.288Z,68.35
2023-02-12T07:37:01.477Z,68.70
2023-02-12T07:39:34.760Z,69.16
2023-02-12T07:42:09.284Z,68.83
2023-02-12T07:44:42.302Z,68.50
2023-02-12T07:47:16.580Z,68.01
2023-02-12T07:49:49.811Z,68.55
2023-02-12T07:52:23.012Z,68.56
2023-02-12T07:54:55.955Z,68.33
2023-02-12T07:57:30.341Z,68.54
2023-02-12T08:00:03.276Z,69.16
2023-02-12T08:02:36.671Z,69.07
2023-02-12T08:05:10.012Z,69.07
2023-02-12T08:07:43.181Z,69.05
2023-02-12T08:10:16.158Z,69.11
2023-02-12T08:12:51.109Z,68.95
2023-02-12T08:15:24.541Z,69.17
2023-02-12T08:17:57.578Z,68.15
2023-02-12T08:20:31.031Z,68.27
2023-02-12T08:23:04.222Z,68.88
2023-02-12T08:25:37.223Z,67.93
2023-02-12T08:28:11.669Z,67.96
2023-02-12T08:30:44.520Z,67.15
2023-02-12T08:33:17.602Z,66.05
2023-02-12T08:35:50.566Z,65.87
2023-02-12T08:38:23.782Z,65.51
2023-02-12T08:40:57.046Z,65.73
2023-02-12T08:43:31.826Z,65.84
2023-02-12T08:46:05.893Z,65.20
2023-02-12T08:48:39.512Z,66.10
2023-02-12T08:51:14.116Z,65.90
2023-02-12T08:53:48.122Z,65.34
2023-02-12T08:56:21.577Z,65.39
2023-02-12T08:58:56.073Z,64.63
2023-02-12T09:01:30.522Z,64.46
2023-02-12T09:04:03.552Z,63.25
2023-02-12T09:06:36.986Z,62.84
2023-02-12T09:09:09.830Z,62.37
2023-02-12T09:11:42.986Z,61.21
2023-02-12T09:14:23.862Z,61.09
2023-02-12T09:16:58.306Z,61.28
2023-02-12T09:19:31.597Z,60.70
2023-02-12T09:22:05.159Z,61.12
2023-02-12T09:24:39.565Z,60.93
2023-02-12T09:27:12.947Z,60.08
2023-02-12T09:29:47.771Z,59.97
2023-02-12T09:32:20.702Z,59.13
2023-02-12T09:34:53.747Z,58.75
2023-02-12T09:37:26.591Z,58.77
2023-02-12T09:40:00.135Z,59.32
2023-02-12T09:42:46.359Z,58.52
2023-02-12T09:45:22.369Z,55.62
2023-02-12T09:48:00.031Z,53.08
2023-02-12T09:50:37.395Z,53.16
2023-02-12T09:53:14.146Z,52.20
2023-02-12T09:55:47.356Z,50.78
2023-02-12T09:58:23.239Z,50.45
2023-02-12T10:00:57.605Z,50.93
2023-02-12T10:03:32.172Z,50.86
2023-02-12T10:06:06.991Z,51.02
2023-02-12T10:08:48.812Z,50.96
2023-02-12T10:11:27.296Z,50.98
2023-02-12T10:14:06.700Z,50.40
2023-02-12T10:16:49.382Z,51.49
2023-02-12T10:19:28.258Z,51.16
2023-02-12T10:22:05.580Z,51.50
2023-02-12T10:24:50.348Z,51.95
2023-02-12T10:27:27.077Z,51.03
2023-02-12T10:30:00.945Z,50.53
2023-02-12T10:32:36.796Z,50.41
2023-02-12T10:35:14.429Z,51.01
2023-02-12T10:37:50.017Z,50.75
2023-02-12T10:40:26.449Z,50.33
2023-02-12T10:43:00.384Z,50.74
2023-02-12T10:45:35.565Z,50.74
2023-02-12T10:48:12.617Z,50.15
2023-02-12T10:50:53.038Z,49.94
2023-02-12T10:53:26.839Z,49.36
2023-02-12T10:56:11.030Z,49.52
2023-02-12T10:58:51.537Z,48.95
2023-02-12T11:01:27.455Z,48.79
2023-02-12T11:04:19.975Z,45.94
2023-02-12T11:07:00.001Z,46.17
2023-02-12T11:09:36.350Z,46.18
2023-02-12T11:12:18.757Z,44.23
2023-02-12T11:14:53.917Z,44.56
2023-02-12T11:17:29.838Z,44.38
2023-02-12T11:20:09.092Z,46.15
2023-02-12T11:22:50.339Z,46.78
2023-02-12T11:25:24.689Z,47.56
2023-02-12T11:28:06.493Z,46.90
2023-02-12T11:30:49.866Z,45.74
2023-02-12T11:33:25.119Z,46.68
2023-02-12T11:36:01.621Z,47.00
2023-02-12T11:38:37.001Z,46.86
2023-02-12T11:41:19.374Z,46.03
2023-02-12T11:43:53.025Z,45.75
2023-02-12T11:46:27.777Z,46.47
2023-02-12T11:49:01.967Z,45.85
2023-02-12T11:51:37.913Z,45.89
2023-02-12T11:54:18.521Z,46.55
2023-02-12T11:56:51.649Z,45.23
2023-02-12T11:59:32.629Z,45.45
2023-02-12T12:02:15.251Z,45.86
2023-02-12T12:04:51.298Z,46.42
2023-02-12T12:07:28.047Z,46.13
2023-02-12T12:10:02.956Z,46.39
2023-02-12T12:12:41.289Z,46.48
2023-02-12T12:15:35.571Z,47.03
2023-02-12T12:18:32.485Z,46.98
2023-02-12T12:21:09.727Z,46.61
2023-02-12T12:23:48.703Z,46.80
2023-02-12T12:26:24.738Z,46.99
2023-02-12T12:29:02.580Z,46.45
2023-02-12T12:31:39.180Z,46.08
2023-02-12T12:34:14.169Z,45.04
2023-02-12T12:37:14.514Z,45.34
2023-02-12T12:39:56.097Z,44.84
2023-02-12T12:42:40.758Z,45.54
2023-02-12T12:45:20.860Z,45.59
2023-02-12T12:48:02.124Z,46.36
2023-02-12T12:50:53.075Z,46.11
2023-02-12T12:53:35.270Z,46.08
2023-02-12T12:56:20.235Z,46.77
2023-02-12T12:59:07.576Z,46.47
2023-02-12T13:02:02.516Z,46.56
2023-02-12T13:04:45.690Z,46.10
2023-02-12T13:07:22.743Z,45.62
2023-02-12T13:10:11.775Z,46.50
2023-02-12T13:13:03.328Z,46.61
2023-02-12T13:15:40.375Z,45.85
2023-02-12T13:18:21.866Z,45.82
2023-02-12T13:20:59.916Z,46.00
2023-02-12T13:23:40.045Z,45.75
2023-02-12T13:26:18.515Z,45.75
2023-02-12T13:28:55.643Z,45.37
2023-02-12T13:31:33.963Z,45.91
2023-02-12T13:34:08.648Z,45.50
2023-02-12T13:36:42.295Z,45.17
2023-02-12T13:39:19.856Z,45.74
2023-02-12T13:41:57.495Z,45.74
2023-02-12T13:44:33.836Z,46.28
2023-02-12T13:47:10.765Z,46.30
2023-02-12T13:49:47.529Z,45.58
2023-02-12T13:52:26.791Z,45.57
2023-02-12T13:55:07.613Z,45.27
2023-02-12T13:57:40.637Z,44.63
2023-02-12T14:00:28.540Z,45.48
2023-02-12T14:03:09.231Z,46.04
2023-02-12T14:05:42.380Z,45.82
2023-02-12T14:08:32.924Z,45.87
2023-02-12T14:11:08.316Z,46.06
2023-02-12T14:13:52.238Z,46.66
2023-02-12T14:16:39.930Z,47.21
2023-02-12T14:19:31.624Z,46.38
2023-02-12T14:22:11.498Z,47.55
2023-02-12T14:24:51.332Z,46.99
2023-02-12T14:27:29.108Z,46.78
2023-02-12T14:30:03.442Z,47.21
2023-02-12T14:32:55.832Z,47.12
2023-02-12T14:35:32.810Z,47.20
2023-02-12T14:38:30.337Z,47.25
2023-02-12T14:41:34.248Z,47.17
2023-02-12T14:44:26.885Z,47.65
2023-02-12T14:47:02.720Z,47.47
2023-02-12T14:49:38.068Z,47.74
2023-02-12T14:52:16.358Z,48.24
2023-02-12T14:54:50.649Z,48.05
2023-02-12T14:57:26.459Z,47.91
2023-02-12T15:00:01.341Z,48.12
2023-02-12T15:02:36.319Z,47.54
2023-02-12T15:05:16.492Z,48.52
2023-02-12T15:07:51.625Z,48.96
2023-02-12T15:10:28.791Z,49.54
2023-02-12T15:13:09.329Z,50.06
2023-02-12T15:15:46.651Z,49.91
2023-02-12T15:18:23.368Z,49.56
2023-02-12T15:21:00.230Z,50.38
2023-02-12T15:23:34.673Z,49.29
2023-02-12T15:26:08.162Z,49.53
2023-02-12T15:28:43.169Z,50.33
2023-02-12T15:31:18.047Z,50.37
2023-02-12T15:33:53.231Z,50.73
2023-02-12T15:36:27.171Z,50.90
2023-02-12T15:39:03.576Z,50.49
2023-02-12T15:41:38.854Z,52.41
2023-02-12T15:44:24.658Z,51.17
2023-02-12T15:46:59.033Z,51.07
2023-02-12T15:49:33.687Z,53.33
2023-02-12T15:52:09.517Z,52.81
2023-02-12T15:56:57.055Z,52.32
2023-02-12T15:59:30.420Z,52.48
2023-02-12T16:02:04.883Z,52.97
2023-02-12T16:04:42.058Z,53.85
2023-02-12T16:07:17.412Z,54.90
2023-02-12T16:09:52.426Z,54.96
2023-02-12T16:12:37.681Z,55.61
2023-02-12T16:15:28.989Z,55.78
2023-02-12T16:18:05.928Z,56.94
2023-02-12T16:20:40.018Z,56.90
2023-02-12T16:23:14.902Z,57.29
2023-02-12T16:25:55.630Z,58.23
2023-02-12T16:28:33.377Z,58.54
2023-02-12T16:31:12.474Z,58.25
2023-02-12T16:33:48.794Z,58.49
2023-02-12T16:36:31.682Z,58.91
2023-02-12T16:39:08.544Z,59.03
2023-02-12T16:41:54.298Z,58.91
2023-02-12T16:44:34.863Z,59.25
2023-02-12T16:47:24.309Z,59.53
2023-02-12T16:50:01.695Z,59.15
2023-02-12T16:52:40.166Z,60.05
2023-02-12T16:55:18.089Z,60.18
2023-02-12T16:57:52.907Z,60.57
2023-02-12T17:00:28.085Z,60.13
2023-02-12T17:03:01.475Z,60.44
2023-02-12T17:05:35.078Z,60.47
2023-02-12T17:08:11.711Z,60.85
2023-02-12T17:10:45.642Z,60.65
2023-02-12T17:13:23.732Z,60.71
2023-02-12T17:16:03.903Z,61.05
2023-02-12T17:18:38.745Z,61.40
2023-02-12T17:21:21.682Z,61.57
2023-02-12T17:23:57.004Z,61.98
2023-02-12T17:26:30.693Z,62.02
2023-02-12T17:29:06.460Z,62.51
2023-02-12T17:31:41.099Z,62.55
2023-02-12T17:34:16.528Z,61.95
2023-02-12T17:36:49.851Z,61.76
2023-02-12T17:39:23.093Z,61.87
2023-02-12T17:41:59.967Z,62.39
2023-02-12T17:44:33.384Z,62.30
2023-02-12T17:47:13.180Z,62.78
2023-02-12T17:49:47.184Z,63.11
2023-02-12T17:52:20.428Z,62.95
2023-02-12T17:54:54.522Z,62.92
2023-02-12T17:57:27.831Z,63.44
2023-02-12T18:00:01.472Z,63.29
2023-02-12T18:02:47.686Z,63.82
2023-02-12T18:05:21.161Z,64.05
2023-02-12T18:07:56.213Z,63.59
2023-02-12T18:10:29.857Z,64.13
2023-02-12T18:13:04.981Z,63.94
2023-02-12T18:15:38.412Z,64.56
2023-02-12T18:18:13.322Z,64.28
2023-02-12T18:20:47.081Z,64.34
2023-02-12T18:23:20.717Z,64.39
2023-02-12T18:25:53.996Z,65.04
2023-02-12T18:28:27.610Z,65.14
2023-02-12T18:31:03.540Z,64.85
2023-02-12T18:33:39.295Z,65.31
2023-02-12T18:36:15.828Z,64.73
2023-02-12T18:38:50.645Z,64.96
2023-02-12T18:41:25.801Z,65.70
2023-02-12T18:43:59.931Z,65.76
2023-02-12T18:46:33.944Z,65.24
2023-02-12T18:49:09.871Z,65.69
2023-02-12T18:51:43.736Z,65.69
2023-02-12T18:54:17.002Z,66.10
2023-02-12T18:56:53.318Z,66.03
2023-02-12T18:59:27.416Z,65.92
2023-02-12T19:02:03.999Z,66.08
2023-02-12T19:04:43.272Z,66.19
2023-02-12T19:07:16.782Z,66.59
2023-02-12T19:09:50.805Z,66.24
2023-02-12T19:12:26.010Z,66.29
2023-02-12T19:15:03.797Z,66.23
2023-02-12T19:17:39.321Z,66.08
2023-02-12T19:20:15.346Z,65.81
2023-02-12T19:22:50.764Z,66.53
2023-02-12T19:25:26.562Z,66.09
2023-02-12T19:28:00.273Z,66.37
2023-02-12T19:30:37.431Z,66.23
2023-02-12T19:33:11.324Z,66.34
2023-02-12T19:35:50.200Z,66.58
2023-02-12T19:38:25.014Z,67.20
2023-02-12T19:41:03.761Z,67.24
2023-02-12T19:43:40.296Z,67.76
2023-02-12T19:46:15.822Z,67.68
2023-02-12T19:48:49.871Z,67.12
2023-02-12T19:51:26.131Z,67.83
2023-02-12T19:54:01.380Z,67.41
2023-02-12T19:56:37.898Z,67.43
2023-02-12T19:59:13.720Z,68.51
2023-02-12T20:01:48.364Z,68.33
2023-02-12T20:04:24.532Z,68.63
2023-02-12T20:06:59.467Z,68.73
2023-02-12T20:09:36.238Z,69.45
2023-02-12T20:12:11.992Z,69.50
2023-02-12T20:14:46.278Z,69.29
2023-02-12T20:17:20.275Z,69.74
2023-02-12T20:19:54.155Z,69.64
2023-02-12T20:22:28.814Z,69.74
2023-02-12T20:25:02.025Z,70.17
2023-02-12T20:27:35.456Z,70.78
2023-02-12T20:30:12.745Z,71.52
2023-02-12T20:32:46.477Z,71.48
2023-02-12T20:35:19.972Z,71.83
2023-02-12T20:37:55.142Z,71.29
2023-02-12T20:40:28.832Z,72.02
2023-02-12T20:43:02.452Z,71.77
2023-02-12T20:45:36.298Z,72.18
2023-02-12T20:48:10.276Z,72.25
2023-02-12T20:50:43.710Z,73.32
2023-02-12T20:53:18.373Z,73.00
2023-02-12T20:55:52.108Z,73.04
2023-02-12T20:58:26.858Z,73.44
2023-02-12T21:01:07.124Z,73.71
2023-02-12T21:03:40.595Z,73.59
2023-02-12T21:06:13.836Z,73.82
2023-02-12T21:08:51.195Z,73.77
2023-02-12T21:11:26.723Z,73.85
2023-02-12T21:14:20.788Z,74.61
2023-02-12T21:16:59.606Z,74.28
2023-02-12T21:19:35.031Z,74.24
2023-02-12T21:22:08.452Z,75.03
2023-02-12T21:24:42.995Z,74.79
2023-02-12T21:27:16.447Z,75.66
2023-02-12T21:29:50.064Z,75.37
2023-02-12T21:32:23.448Z,75.99
2023-02-12T21:34:56.934Z,76.61
2023-02-12T21:37:32.137Z,76.20
2023-02-12T21:40:08.636Z,76.42
2023-02-12T21:42:42.114Z,76.24
2023-02-12T21:45:15.363Z,76.25
2023-02-12T21:47:48.614Z,76.89
2023-02-12T21:50:22.372Z,76.86
2023-02-12T21:52:55.842Z,77.34
2023-02-12T21:55:30.597Z,77.16
2023-02-12T21:58:03.855Z,76.74
2023-02-12T22:00:37.247Z,77.24
2023-02-12T22:03:10.459Z,77.35
2023-02-12T22:05:43.683Z,76.57
2023-02-12T22:08:17.336Z,77.35
2023-02-12T22:10:52.430Z,77.54
2023-02-12T22:13:26.321Z,77.15
2023-02-12T22:16:09.369Z,77.99
2023-02-12T22:18:43.558Z,77.11
2023-02-12T22:21:18.665Z,77.49
2023-02-12T22:23:52.858Z,76.89
2023-02-12T22:26:28.025Z,77.09
2023-02-12T22:29:04.098Z,76.67
2023-02-12T22:31:39.670Z,76.30
2023-02-12T22:34:15.804Z,77.21
2023-02-12T22:36:49.627Z,76.85
2023-02-12T22:39:23.077Z,77.13
2023-02-12T22:41:57.828Z,76.30
2023-02-12T22:44:31.544Z,76.84
2023-02-12T22:47:05.102Z,76.54
2023-02-12T22:49:38.511Z,76.93
2023-02-12T22:52:12.460Z,77.06
2023-02-12T22:54:45.395Z,77.61
2023-02-12T22:57:20.014Z,77.54
2023-02-12T22:59:53.221Z,77.95
2023-02-12T23:02:26.781Z,77.83
2023-02-12T23:05:00.138Z,77.47
2023-02-12T23:07:33.299Z,78.49
2023-02-12T23:10:07.689Z,77.48
2023-02-12T23:12:42.899Z,78.59
2023-02-12T23:15:16.646Z,78.72
2023-02-12T23:17:50.172Z,77.88
2023-02-12T23:20:23.920Z,77.77
2023-02-12T23:22:57.182Z,78.83
2023-02-12T23:25:30.383Z,78.91
2023-02-12T23:28:05.202Z,78.85
2023-02-12T23:30:38.593Z,78.59
2023-02-12T23:33:12.492Z,79.36
2023-02-12T23:35:46.402Z,78.96
2023-02-12T23:38:19.914Z,79.41
2023-02-12T23:40:53.255Z,78.87
2023-02-12T23:43:27.820Z,80.01
2023-02-12T23:46:01.515Z,80.08
2023-02-12T23:48:35.016Z,80.16
2023-02-12T23:51:08.846Z,80.46
2023-02-12T23:53:42.340Z,80.39
2023-02-12T23:56:15.748Z,81.21
2023-02-12T23:58:50.466Z,80.92
